Terminal Aerodrome Forecast
Issued by NWS

Home | Current Version | Previous Version | Text Only | Print | Product List | Glossary Off
Versions: 1 2 3 4 5 6 7 8 9 10 11 12 13 14 15 16

454
FTUS43 KICT 271135
TAFHUT
TAF
KHUT 271135Z 2712/2812 VRB03KT P6SM SKC
     FM271300 15007KT P6SM SCT120 BKN250
     FM271900 14012KT P6SM OVC100
     FM272300 10013KT P6SM VCSH OVC035
     FM280100 10010KT P6SM -SHRA VCTS OVC030CB
     FM280600 10008KT P6SM BKN015
     FM281000 08006KT P6SM BKN009=

USA.gov is the U.S. government's official web portal to all federal, state and local government web resources and services.